CheckWX is a tool to help pilots better visualize weather data.  It is not intended as a substitute for an official pre-flight weather briefing.

01:04:38 UTC

KSAT METAR
San Antonio International Airport
San Antonio, Texas, USA
Current

1 hour ago

KSAT 192351Z 14011KT 10SM FEW075 SCT250 37/18 A2991 RMK AO2 SLP106 T03670183 10383 20328 56008
Observed
Aug-19 @ 23:51 UTC
Wind
  • 140° at 11 KTS
Visibility
10 SM
Flight Rules
VFR
Cloud Levels
  • Few at 7,500' AGL
  • Scattered at 25,000' AGL
Temperature
37°C / 99°F
Dewpoint
18°C / 64°F
Humidity
33%
Altimeter
29.91" Hg
Pressure
1012.92 hPa
Previous

2 hours ago

KSAT 192251Z 16009KT 10SM FEW075 SCT250 38/18 A2991 RMK AO2 SLP108 T03780183
Observed
Aug-19 @ 22:51 UTC
Wind
  • 160° at 9 KTS
Visibility
10 SM
Flight Rules
VFR
Cloud Levels
  • Few at 7,500' AGL
  • Scattered at 25,000' AGL
Temperature
38°C / 100°F
Dewpoint
18°C / 64°F
Humidity
31%
Altimeter
29.91" Hg
Pressure
1012.92 hPa
Previous

3 hours ago

KSAT 192151Z 18007KT 140V210 10SM SCT070 SCT250 37/18 A2991 RMK AO2 SLP109 T03720183
Observed
Aug-19 @ 21:51 UTC
Wind
  • 180° at 7 KTS
Visibility
10 SM
Flight Rules
VFR
Cloud Levels
  • Scattered at 7,000' AGL
  • Scattered at 25,000' AGL
Temperature
37°C / 99°F
Dewpoint
18°C / 64°F
Humidity
33%
Altimeter
29.91" Hg
Pressure
1012.92 hPa